Time;durP1;ratioP1;P1;durP2;ratioP2;P2;SDS_P1;SDS_P2;PMS_P1;PMS_P2;Temp;Humidity;BMP_temperature;BMP_pressure;BME280_temperature;BME280_humidity;BME280_pressure;Samples;Min_cycle;Max_cycle;Signal;HPM_P1;HPM_P2
2023/10/05 00:02:24;;;;;;;;;11.80;10.60;;;;;13.15;50.49;100285.03;5126053;27;8829;-72
2023/10/05 00:04:53;;;;;;;;;14.60;12.40;;;;;12.98;50.58;100288.00;5128164;27;8841;-72
2023/10/05 00:07:23;;;;;;;;;12.00;11.00;;;;;12.97;51.03;100288.00;5128215;27;8849;-72
2023/10/05 00:09:56;;;;;;;;;12.40;11.60;;;;;13.01;51.25;100292.34;5128636;27;8927;-73
2023/10/05 00:12:27;;;;;;;;;14.20;13.60;;;;;13.42;50.18;100288.88;5128576;27;8841;-74
2023/10/05 00:15:08;;;;;;;;;16.20;16.20;;;;;13.80;49.60;100283.66;5128417;27;9602;-73
2023/10/05 00:17:38;;;;;;;;;17.40;15.40;;;;;14.09;49.27;100289.19;5126252;27;8861;-75
2023/10/05 00:20:10;;;;;;;;;21.80;20.40;;;;;14.18;49.12;100279.28;5110176;27;8836;-73
2023/10/05 00:22:42;;;;;;;;;20.60;18.20;;;;;14.37;48.49;100269.97;5128445;27;8853;-76
2023/10/05 00:25:14;;;;;;;;;20.40;20.40;;;;;14.52;48.13;100275.81;5109632;27;8864;-74
2023/10/05 00:27:46;;;;;;;;;23.00;22.20;;;;;14.64;47.86;100275.47;5128212;27;9685;-75
2023/10/05 00:30:17;;;;;;;;;25.20;22.60;;;;;14.72;47.66;100273.53;5130592;27;8853;-74
2023/10/05 00:32:52;;;;;;;;;22.00;20.80;;;;;14.81;47.32;100272.41;5130420;27;8829;-72
2023/10/05 00:35:26;;;;;;;;;23.20;21.60;;;;;14.88;47.18;100267.84;5112048;27;8849;-74
2023/10/05 00:38:04;;;;;;;;;25.80;22.80;;;;;14.90;47.35;100269.50;5080837;27;8834;-74
2023/10/05 00:40:35;;;;;;;;;27.40;26.00;;;;;14.95;47.31;100275.56;5113130;27;8856;-74
2023/10/05 00:43:08;;;;;;;;;23.80;23.40;;;;;14.95;47.16;100269.41;5131795;27;8837;-71
2023/10/05 00:45:38;;;;;;;;;26.20;24.40;;;;;14.94;47.16;100265.00;5063840;27;8868;-73
2023/10/05 00:48:26;;;;;;;;;23.80;23.40;;;;;14.86;47.09;100260.78;5129838;27;8849;-74
2023/10/05 00:50:56;;;;;;;;;25.00;23.80;;;;;14.88;46.82;100258.09;5112848;27;9002;-73
2023/10/05 00:53:26;;;;;;;;;27.80;26.00;;;;;14.91;46.61;100252.75;5113237;27;8929;-73
2023/10/05 00:56:07;;;;;;;;;24.40;24.20;;;;;14.91;46.74;100260.69;5079372;27;8873;-75
2023/10/05 00:58:44;;;;;;;;;26.20;25.20;;;;;14.93;46.51;100255.34;5083706;27;8873;-76
2023/10/05 01:01:21;;;;;;;;;25.00;23.00;;;;;14.90;46.52;100251.00;5078085;27;8865;-73
2023/10/05 01:04:18;;;;;;;;;26.00;23.60;;;;;14.88;46.17;100251.94;5129308;27;8829;-73
2023/10/05 01:06:54;;;;;;;;;22.00;21.40;;;;;14.91;46.27;100251.88;5131446;27;9697;-73
2023/10/05 01:12:16;;;;;;;;;23.20;22.20;;;;;14.91;45.94;100250.09;5130819;27;8853;-74
2023/10/05 01:14:50;;;;;;;;;26.20;21.60;;;;;14.95;45.80;100245.59;5112958;27;8856;-76
2023/10/05 01:17:21;;;;;;;;;23.20;21.00;;;;;15.00;45.49;100243.66;5131306;27;8845;-75
2023/10/05 01:19:54;;;;;;;;;26.60;23.00;;;;;15.01;45.49;100250.69;5128988;27;8883;-72
2023/10/05 01:22:24;;;;;;;;;22.00;22.00;;;;;15.04;45.27;100242.69;5112548;27;8945;-72
2023/10/05 01:24:58;;;;;;;;;20.00;19.20;;;;;15.06;45.02;100248.78;5095879;27;8914;-75
2023/10/05 01:27:29;;;;;;;;;18.80;18.60;;;;;15.08;45.01;100244.31;5078097;27;8880;-74
2023/10/05 01:30:00;;;;;;;;;23.20;23.00;;;;;15.01;45.12;100242.75;5112005;27;8842;-74
2023/10/05 01:32:28;;;;;;;;;22.20;19.20;;;;;14.97;45.25;100246.41;5107297;28;8890;-73
2023/10/05 01:34:58;;;;;;;;;22.00;21.00;;;;;15.01;45.15;100242.75;5106230;28;8831;-71
2023/10/05 01:37:33;;;;;;;;;20.40;19.60;;;;;15.06;44.75;100240.84;5090374;28;8871;-73
2023/10/05 01:40:11;;;;;;;;;21.00;20.00;;;;;14.93;45.18;100244.75;5107145;28;8851;-73
2023/10/05 01:42:43;;;;;;;;;21.00;17.40;;;;;14.64;45.94;100249.91;5090300;28;8852;-75
2023/10/05 01:45:15;;;;;;;;;19.20;19.20;;;;;14.75;45.74;100246.97;5089732;28;8888;-74
2023/10/05 01:47:45;;;;;;;;;22.00;22.00;;;;;14.77;45.67;100244.28;5107276;28;8856;-73
2023/10/05 01:50:18;;;;;;;;;18.40;18.00;;;;;14.84;45.48;100249.38;5088565;28;8950;-72
2023/10/05 01:52:56;;;;;;;;;25.20;21.40;;;;;14.92;45.47;100250.94;5107017;28;8940;-73
2023/10/05 01:55:28;;;;;;;;;19.00;18.20;;;;;14.84;45.01;100254.66;5089808;28;9635;-71
2023/10/05 01:57:58;;;;;;;;;17.80;16.80;;;;;14.82;45.36;100255.63;5090133;28;8971;-72
2023/10/05 02:00:27;;;;;;;;;18.00;16.00;;;;;14.84;45.37;100248.50;5097910;28;8851;-74
2023/10/05 02:02:57;;;;;;;;;19.20;17.80;;;;;14.90;45.45;100255.41;5107021;28;8932;-76
2023/10/05 02:05:26;;;;;;;;;17.60;16.40;;;;;14.64;45.90;100260.47;5076434;28;8847;-74
2023/10/05 02:07:55;;;;;;;;;17.20;17.20;;;;;14.58;45.96;100257.97;5069257;28;9050;-74
2023/10/05 02:10:23;;;;;;;;;21.20;19.00;;;;;14.65;46.10;100251.63;5081462;28;8848;-74
2023/10/05 02:12:54;;;;;;;;;19.20;18.20;;;;;14.70;46.29;100255.91;5089994;28;8894;-74
2023/10/05 02:15:28;;;;;;;;;19.80;17.80;;;;;14.72;46.32;100260.31;5073034;28;8876;-75
2023/10/05 02:18:02;;;;;;;;;24.00;19.60;;;;;14.74;46.16;100266.44;5089961;28;9574;-75
2023/10/05 02:20:41;;;;;;;;;19.20;18.20;;;;;14.35;46.93;100269.16;5088578;28;8833;-73
2023/10/05 02:23:23;;;;;;;;;18.20;15.80;;;;;14.42;46.77;100270.75;5089983;28;8841;-75
2023/10/05 02:26:02;;;;;;;;;18.80;16.80;;;;;14.53;46.78;100267.84;5106770;28;8825;-74
2023/10/05 02:28:33;;;;;;;;;19.80;18.40;;;;;14.51;46.93;100263.47;5089831;28;9575;-75
2023/10/05 02:31:08;;;;;;;;;15.00;12.20;;;;;14.49;47.02;100266.19;5095450;27;8814;-76
2023/10/05 02:33:40;;;;;;;;;20.80;18.80;;;;;14.51;46.84;100263.47;5129828;27;8864;-73
2023/10/05 02:36:17;;;;;;;;;19.40;17.20;;;;;14.52;46.98;100271.38;5127300;27;8942;-73
2023/10/05 02:38:53;;;;;;;;;18.00;17.60;;;;;14.52;46.89;100274.00;5111312;27;9611;-76
2023/10/05 02:41:37;;;;;;;;;16.20;14.80;;;;;14.54;47.05;100273.97;5110935;27;9594;-74
2023/10/05 02:44:17;;;;;;;;;19.00;18.60;;;;;14.57;46.92;100285.34;5128307;27;8921;-75
2023/10/05 02:46:48;;;;;;;;;19.00;19.00;;;;;14.31;47.46;100280.72;5111405;27;8831;-73
2023/10/05 02:49:23;;;;;;;;;17.60;15.20;;;;;14.34;47.30;100288.59;5128034;27;8925;-73
2023/10/05 02:51:53;;;;;;;;;17.80;17.00;;;;;14.10;47.98;100290.03;5124568;27;8910;-74
2023/10/05 02:54:23;;;;;;;;;16.40;16.20;;;;;13.93;48.21;100297.50;5111313;27;8852;-74
2023/10/05 02:56:53;;;;;;;;;17.00;17.00;;;;;14.05;48.16;100295.47;5129036;27;8953;-74
2023/10/05 02:59:27;;;;;;;;;16.20;14.40;;;;;13.98;48.22;100291.22;5077791;27;8853;-74
2023/10/05 03:02:09;;;;;;;;;15.00;15.00;;;;;14.02;48.28;100298.16;5110790;27;8841;-76
2023/10/05 03:04:48;;;;;;;;;16.60;13.60;;;;;14.15;47.98;100298.75;5129082;27;8834;-75
2023/10/05 03:07:25;;;;;;;;;12.80;12.00;;;;;14.26;47.48;100298.47;5110039;27;8830;-74
2023/10/05 03:09:59;;;;;;;;;18.40;17.60;;;;;14.16;48.06;100294.31;5110688;27;8884;-74
2023/10/05 03:12:33;;;;;;;;;19.40;17.80;;;;;13.91;48.14;100299.31;5110727;27;8906;-74
2023/10/05 03:15:08;;;;;;;;;16.20;16.20;;;;;13.65;49.10;100291.00;5077238;27;8841;-75
2023/10/05 03:17:45;;;;;;;;;15.40;15.20;;;;;13.56;49.40;100296.50;5110784;27;8826;-76
2023/10/05 03:20:18;;;;;;;;;18.00;14.60;;;;;13.56;49.49;100298.28;5110666;27;8946;-73
2023/10/05 03:22:47;;;;;;;;;16.20;15.00;;;;;13.69;49.22;100294.47;5108160;27;8846;-74
2023/10/05 03:25:19;;;;;;;;;10.80;9.60;;;;;13.75;48.90;100304.03;5110705;27;8892;-76
2023/10/05 03:27:49;;;;;;;;;16.40;14.40;;;;;13.75;48.97;100309.31;5109812;27;8821;-74
2023/10/05 03:30:26;;;;;;;;;17.80;17.80;;;;;13.82;49.01;100305.66;5110494;27;8865;-75
2023/10/05 03:33:00;;;;;;;;;18.00;16.80;;;;;14.00;48.31;100310.53;5129148;27;9563;-73
2023/10/05 03:35:32;;;;;;;;;16.80;15.00;;;;;13.87;48.59;100303.81;5110501;27;8861;-75
2023/10/05 03:38:03;;;;;;;;;16.20;15.20;;;;;13.78;48.95;100306.59;5110499;27;8845;-74
2023/10/05 03:40:36;;;;;;;;;18.80;17.60;;;;;13.56;49.74;100303.56;5128986;27;8853;-75
2023/10/05 03:43:05;;;;;;;;;17.00;15.80;;;;;13.63;49.50;100305.16;5127226;27;8946;-74
2023/10/05 03:45:39;;;;;;;;;17.00;16.40;;;;;13.29;50.55;100308.50;5111295;27;8833;-75
2023/10/05 03:48:10;;;;;;;;;20.00;18.60;;;;;13.31;50.46;100311.97;5131370;27;8837;-74
2023/10/05 03:50:39;;;;;;;;;14.80;14.40;;;;;13.47;50.16;100304.63;5056867;28;8922;-75
2023/10/05 03:53:15;;;;;;;;;14.80;14.80;;;;;13.56;49.94;100298.28;5107270;28;8886;-74
2023/10/05 03:55:47;;;;;;;;;17.40;17.40;;;;;13.65;49.84;100298.06;5108331;28;8840;-73
2023/10/05 03:58:16;;;;;;;;;16.60;14.60;;;;;13.75;49.42;100298.75;5100334;27;8875;-72
2023/10/05 04:00:49;;;;;;;;;14.00;13.00;;;;;13.75;49.44;100298.75;5110284;27;8856;-74
2023/10/05 04:03:24;;;;;;;;;16.00;13.60;;;;;13.40;50.18;100298.59;5078145;27;8861;-75
2023/10/05 04:05:53;;;;;;;;;19.80;19.00;;;;;13.49;50.40;100293.13;5114129;27;9519;-74
2023/10/05 04:08:23;;;;;;;;;19.40;19.40;;;;;13.56;50.19;100296.50;5080093;27;8919;-73
2023/10/05 04:10:52;;;;;;;;;18.60;18.40;;;;;13.61;50.05;100293.75;5080472;27;8857;-74
2023/10/05 04:13:23;;;;;;;;;15.40;14.40;;;;;13.49;50.40;100298.41;5130401;27;8826;-74
2023/10/05 04:15:53;;;;;;;;;21.60;19.20;;;;;12.80;52.35;100301.50;5096096;27;8833;-75
2023/10/05 04:18:23;;;;;;;;;16.80;15.80;;;;;12.60;52.82;100307.09;5115404;27;8829;-77
2023/10/05 04:20:55;;;;;;;;;19.20;18.00;;;;;12.75;52.38;100301.59;5132453;27;8884;-75
2023/10/05 04:23:27;;;;;;;;;17.40;16.60;;;;;12.81;52.17;100311.16;5132313;27;8837;-76
2023/10/05 04:25:56;;;;;;;;;18.80;15.80;;;;;12.93;51.97;100300.41;5132291;27;9611;-75
2023/10/05 04:28:33;;;;;;;;;14.20;12.80;;;;;13.06;51.71;100295.75;5131193;27;8833;-75
2023/10/05 04:31:10;;;;;;;;;31.80;30.00;;;;;13.17;51.51;100291.16;5132101;27;8865;-75
2023/10/05 04:33:42;;;;;;;;;28.40;27.80;;;;;13.35;51.13;100299.59;5132163;27;8861;-76
2023/10/05 04:36:11;;;;;;;;;22.00;21.00;;;;;13.30;51.33;100295.28;5132142;27;9010;-75
2023/10/05 04:38:41;;;;;;;;;18.80;17.80;;;;;13.23;51.53;100295.44;5132227;27;8822;-77
2023/10/05 04:41:12;;;;;;;;;24.00;21.00;;;;;13.28;51.20;100290.94;5113512;27;8861;-75
2023/10/05 04:43:43;;;;;;;;;21.20;19.80;;;;;13.32;50.94;100295.25;5130107;27;8830;-74
2023/10/05 04:46:17;;;;;;;;;21.20;19.40;;;;;13.14;51.55;100292.97;5095794;27;8852;-74
2023/10/05 04:48:56;;;;;;;;;16.60;16.60;;;;;13.27;51.27;100297.97;5132278;27;8849;-77
2023/10/05 04:51:30;;;;;;;;;20.20;19.20;;;;;13.26;50.96;100298.88;5131707;27;8884;-77
2023/10/05 04:54:00;;;;;;;;;16.80;16.60;;;;;13.35;51.03;100303.09;5129658;27;8858;-75
2023/10/05 04:56:35;;;;;;;;;23.40;22.20;;;;;13.39;50.83;100307.44;5113194;27;8857;-76
2023/10/05 04:59:24;;;;;;;;;21.80;21.80;;;;;13.44;50.87;100302.03;5131973;27;8867;-75
2023/10/05 05:02:12;;;;;;;;;19.00;19.00;;;;;13.54;50.44;100303.56;5112772;27;8988;-75
2023/10/05 05:05:05;;;;;;;;;17.20;17.00;;;;;13.60;50.39;100308.75;5061846;27;8857;-75
2023/10/05 05:07:36;;;;;;;;;46.75;38.50;;;;;13.64;50.37;100307.78;5111521;28;8896;-74
2023/10/05 05:10:11;;;;;;;;;34.50;31.50;;;;;13.68;50.33;100317.38;5120923;27;8848;-74
2023/10/05 05:12:40;;;;;;;;;19.20;19.00;;;;;13.67;50.16;100320.03;5080864;27;9583;-74
2023/10/05 05:15:10;;;;;;;;;20.00;19.00;;;;;13.69;50.29;100311.19;5111408;27;8884;-77
2023/10/05 05:17:40;;;;;;;;;22.20;17.00;;;;;13.73;50.11;100316.41;5112483;27;8865;-75
2023/10/05 05:20:15;;;;;;;;;23.00;21.20;;;;;13.73;50.33;100321.69;5112824;27;8922;-77
2023/10/05 05:22:46;;;;;;;;;42.75;35.25;;;;;13.74;50.59;100321.66;5131260;27;8829;-74
2023/10/05 05:25:19;;;;;;;;;52.25;43.25;;;;;13.82;50.27;100318.88;5111541;27;8953;-77
2023/10/05 05:27:48;;;;;;;;;22.20;21.20;;;;;13.88;50.15;100318.72;5111531;27;8874;-75
2023/10/05 05:30:25;;;;;;;;;25.80;23.80;;;;;13.95;49.85;100327.41;5112481;27;8842;-77
2023/10/05 05:32:56;;;;;;;;;19.40;16.60;;;;;14.01;49.73;100319.34;5149029;27;9021;-75
2023/10/05 05:35:28;;;;;;;;;20.00;19.00;;;;;14.12;49.56;100316.47;5151763;27;8963;-74
2023/10/05 05:37:57;;;;;;;;;19.20;18.20;;;;;14.17;48.88;100319.84;5133333;27;8879;-75
2023/10/05 05:40:28;;;;;;;;;15.80;14.20;;;;;14.20;48.45;100315.34;5131652;27;9008;-75
2023/10/05 05:42:57;;;;;;;;;43.25;36.00;;;;;14.24;48.48;100329.38;5077722;27;9758;-75
2023/10/05 05:45:27;;;;;;;;;24.60;24.60;;;;;14.28;48.16;100324.00;5130203;27;9535;-74
2023/10/05 05:47:56;;;;;;;;;20.80;19.60;;;;;14.35;48.28;100332.63;5130336;27;8846;-76
2023/10/05 05:50:29;;;;;;;;;23.20;22.20;;;;;14.07;49.01;100332.41;5127757;27;8926;-77
2023/10/05 05:52:58;;;;;;;;;19.20;16.60;;;;;14.24;48.66;100332.00;5111515;27;8857;-76
2023/10/05 05:55:27;;;;;;;;;24.80;23.00;;;;;14.18;48.61;100333.03;5129617;27;8857;-76
2023/10/05 05:57:56;;;;;;;;;28.60;26.40;;;;;14.29;48.48;100335.44;5121099;27;8878;-77
2023/10/05 06:00:28;;;;;;;;;40.00;34.50;;;;;14.40;48.09;100333.41;5083561;28;8944;-78
2023/10/05 06:03:00;;;;;;;;;23.60;22.00;;;;;14.58;47.80;100336.50;5034987;28;8867;-76
2023/10/05 06:05:29;;;;;;;;;18.40;18.40;;;;;14.54;47.76;100337.47;5066815;28;9001;-76
2023/10/05 06:08:01;;;;;;;;;20.80;19.00;;;;;14.59;47.64;100332.94;5066370;28;8887;-76
2023/10/05 06:10:34;;;;;;;;;19.80;17.80;;;;;14.64;47.89;100328.38;5066832;28;8864;-77
2023/10/05 06:13:06;;;;;;;;;33.00;31.00;;;;;14.55;48.61;100323.34;5066715;28;8877;-75
2023/10/05 06:15:36;;;;;;;;;20.80;20.20;;;;;14.58;48.31;100329.41;5066417;28;8871;-79
2023/10/05 06:18:07;;;;;;;;;26.00;22.80;;;;;14.70;47.82;100322.06;5065563;28;8878;-77
2023/10/05 06:20:36;;;;;;;;;25.00;25.00;;;;;14.71;47.55;100327.34;5048556;28;8863;-77
2023/10/05 06:23:05;;;;;;;;;22.00;21.60;;;;;14.51;47.58;100329.59;5065626;28;8924;-76
2023/10/05 06:25:34;;;;;;;;;18.60;16.20;;;;;14.52;47.23;100334.88;5064601;28;8863;-77
2023/10/05 06:28:03;;;;;;;;;21.80;20.40;;;;;14.68;47.02;100330.06;5064992;28;8867;-74
2023/10/05 06:30:35;;;;;;;;;19.80;14.80;;;;;14.21;45.79;100334.75;5066643;28;8847;-77
2023/10/05 06:33:08;;;;;;;;;19.00;16.00;;;;;13.58;46.81;100331.69;5100436;27;8876;-73
2023/10/05 06:35:37;;;;;;;;;11.60;11.60;;;;;13.24;47.50;100334.13;5126665;27;8832;-75
2023/10/05 06:38:06;;;;;;;;;13.00;11.40;;;;;13.17;47.87;100340.44;5100360;27;8869;-73
2023/10/05 06:40:35;;;;;;;;;14.00;12.60;;;;;12.53;49.79;100346.78;5128952;27;8845;-77
2023/10/05 06:43:05;;;;;;;;;16.00;13.80;;;;;12.24;51.38;100348.97;5133225;27;8865;-75
2023/10/05 06:45:36;;;;;;;;;12.00;12.00;;;;;12.10;51.82;100341.28;5131258;27;8834;-75
2023/10/05 06:48:07;;;;;;;;;20.00;19.60;;;;;12.71;51.09;100342.09;5110918;27;8849;-75
2023/10/05 06:50:37;;;;;;;;;16.20;16.00;;;;;13.09;50.21;100346.72;5129288;27;8949;-74
2023/10/05 06:53:07;;;;;;;;;18.00;18.00;;;;;13.32;50.26;100345.41;5129497;27;8896;-73
2023/10/05 06:55:36;;;;;;;;;15.60;13.20;;;;;13.41;50.52;100341.72;5129204;27;8984;-72
2023/10/05 06:58:06;;;;;;;;;15.80;15.00;;;;;13.63;50.16;100339.50;5111009;27;8932;-73
2023/10/05 07:00:35;;;;;;;;;17.80;16.40;;;;;13.85;49.44;100332.91;5129417;27;8953;-75
2023/10/05 07:03:07;;;;;;;;;19.80;16.80;;;;;14.03;49.17;100341.31;5129556;27;8929;-73
2023/10/05 07:05:38;;;;;;;;;20.20;18.20;;;;;14.33;48.60;100344.16;5111232;27;8982;-74
2023/10/05 07:08:07;;;;;;;;;24.60;20.80;;;;;14.23;48.00;100335.59;5129793;27;8869;-74
2023/10/05 07:10:36;;;;;;;;;19.80;18.40;;;;;14.43;48.08;100333.34;5127563;27;8892;-75
2023/10/05 07:13:08;;;;;;;;;15.00;14.40;;;;;14.13;46.67;100342.88;5129181;27;8854;-73
2023/10/05 07:15:38;;;;;;;;;14.20;14.00;;;;;14.04;47.44;100351.84;5076805;27;8837;-72
2023/10/05 07:18:09;;;;;;;;;13.80;13.40;;;;;14.00;47.47;100349.34;5129276;27;8972;-75
2023/10/05 07:20:41;;;;;;;;;16.60;14.20;;;;;14.03;46.74;100339.53;5111598;27;8834;-76
2023/10/05 07:23:09;;;;;;;;;15.60;13.40;;;;;14.46;45.66;100340.31;5129800;27;8874;-72
2023/10/05 07:25:41;;;;;;;;;12.80;12.00;;;;;14.74;44.92;100332.59;5129615;27;8941;-76
2023/10/05 07:28:14;;;;;;;;;16.20;13.40;;;;;15.13;44.40;100339.50;5128954;27;8830;-75
2023/10/05 07:30:44;;;;;;;;;11.40;10.60;;;;;15.39;43.12;100337.00;5128805;27;8826;-74
2023/10/05 07:33:14;;;;;;;;;13.00;12.40;;;;;15.36;42.65;100337.13;5075947;27;8841;-73
2023/10/05 07:35:45;;;;;;;;;13.20;12.60;;;;;15.47;42.03;100335.94;5110110;27;8838;-76
2023/10/05 07:38:14;;;;;;;;;16.00;14.20;;;;;15.81;41.46;100335.81;5111326;27;8876;-73
2023/10/05 07:40:44;;;;;;;;;14.20;12.80;;;;;16.03;40.34;100346.66;5133113;27;8857;-73
2023/10/05 07:43:12;;;;;;;;;10.80;10.00;;;;;15.15;41.95;100351.81;5133175;27;8838;-73
2023/10/05 07:45:42;;;;;;;;;9.00;9.00;;;;;15.01;42.75;100341.56;5097420;27;8877;-73
2023/10/05 07:48:13;;;;;;;;;9.80;8.40;;;;;15.34;41.96;100331.00;5133190;27;8898;-76
2023/10/05 07:50:42;;;;;;;;;10.80;9.00;;;;;15.90;40.94;100334.69;5132738;27;8830;-74
2023/10/05 07:53:12;;;;;;;;;10.20;8.80;;;;;16.37;39.99;100337.63;5114165;27;8849;-74
2023/10/05 07:55:41;;;;;;;;;9.00;8.40;;;;;16.53;39.29;100338.03;5113303;27;8845;-75
2023/10/05 07:58:10;;;;;;;;;8.00;8.00;;;;;15.91;40.66;100339.97;5133346;27;8880;-73
2023/10/05 08:00:39;;;;;;;;;9.00;9.00;;;;;16.18;40.85;100340.00;5132671;27;9071;-75
2023/10/05 08:03:09;;;;;;;;;15.20;15.00;;;;;16.78;40.56;100343.41;5132843;27;8865;-77
2023/10/05 08:05:38;;;;;;;;;10.20;9.20;;;;;17.24;39.57;100346.22;5132493;27;8867;-74
2023/10/05 08:08:07;;;;;;;;;12.00;11.00;;;;;17.47;38.38;100342.75;5096567;27;8915;-74
2023/10/05 08:10:38;;;;;;;;;16.60;14.20;;;;;17.84;38.62;100344.91;5132509;27;8845;-77
2023/10/05 08:13:07;;;;;;;;;12.60;12.40;;;;;17.94;37.87;100334.78;5133102;27;8849;-72
2023/10/05 08:15:36;;;;;;;;;13.20;12.60;;;;;18.18;37.45;100337.44;5132953;27;10009;-79
2023/10/05 08:18:05;;;;;;;;;9.20;9.20;;;;;18.01;37.55;100336.28;5133332;27;8945;-76
2023/10/05 08:20:36;;;;;;;;;12.40;10.60;;;;;18.25;37.21;100342.47;5133404;27;8862;-77
2023/10/05 08:23:06;;;;;;;;;12.20;10.60;;;;;18.34;36.98;100338.53;5132392;27;8881;-77
2023/10/05 08:25:37;;;;;;;;;11.20;11.00;;;;;18.67;36.55;100333.63;5132883;27;8845;-74
2023/10/05 08:28:09;;;;;;;;;15.40;15.40;;;;;18.87;36.40;100331.94;5096285;27;8841;-74
2023/10/05 08:30:49;;;;;;;;;12.40;10.20;;;;;19.07;36.16;100341.72;5132476;27;9665;-75
2023/10/05 08:33:19;;;;;;;;;12.20;10.60;;;;;17.82;37.75;100344.09;5131911;27;8853;-75
2023/10/05 08:35:49;;;;;;;;;12.60;12.20;;;;;18.07;37.83;100343.19;5131833;27;8829;-74
2023/10/05 08:38:17;;;;;;;;;9.60;9.00;;;;;17.66;37.77;100345.59;5131986;27;8817;-76
2023/10/05 08:40:52;;;;;;;;;12.00;12.00;;;;;17.35;38.93;100336.13;5132087;27;9612;-75
2023/10/05 08:43:21;;;;;;;;;9.80;9.40;;;;;17.11;38.96;100344.00;5132088;27;8846;-76
2023/10/05 08:45:53;;;;;;;;;9.80;9.40;;;;;17.08;39.48;100346.78;5132341;27;8821;-74
2023/10/05 08:48:30;;;;;;;;;12.60;12.40;;;;;17.48;39.01;100345.38;5113908;27;8849;-75
2023/10/05 08:51:09;;;;;;;;;11.80;11.80;;;;;17.62;38.58;100342.19;5130684;27;9633;-75
2023/10/05 08:53:42;;;;;;;;;16.00;14.60;;;;;17.86;38.42;100335.06;5131894;27;8841;-76
2023/10/05 08:56:15;;;;;;;;;9.80;9.80;;;;;17.92;38.31;100334.81;5095995;27;8960;-75
2023/10/05 08:58:46;;;;;;;;;14.80;14.40;;;;;17.96;38.01;100341.75;5131629;27;8845;-75
2023/10/05 09:01:27;;;;;;;;;10.20;9.80;;;;;18.40;37.23;100338.28;5131774;27;8830;-75
2023/10/05 09:04:04;;;;;;;;;10.20;10.20;;;;;18.05;37.88;100329.94;5132679;27;8861;-76
2023/10/05 09:06:47;;;;;;;;;13.60;13.40;;;;;17.10;39.35;100333.44;5132430;27;8953;-78
2023/10/05 09:09:17;;;;;;;;;9.60;8.60;;;;;16.87;40.30;100328.91;5078793;27;8934;-77
2023/10/05 09:11:48;;;;;;;;;14.60;11.40;;;;;16.74;40.28;100328.50;5113200;27;8850;-73
2023/10/05 09:14:27;;;;;;;;;11.00;9.60;;;;;16.70;40.62;100330.38;5131221;27;8907;-75
2023/10/05 09:17:07;;;;;;;;;11.00;10.20;;;;;16.36;41.16;100318.22;5131293;27;8842;-75
2023/10/05 09:19:37;;;;;;;;;12.80;10.00;;;;;16.43;41.54;100330.31;5131731;27;8842;-76
2023/10/05 09:22:12;;;;;;;;;10.60;10.00;;;;;17.08;40.60;100316.66;5131724;27;8857;-76
2023/10/05 09:24:52;;;;;;;;;9.60;8.00;;;;;16.97;40.42;100322.38;5131671;27;8860;-74
2023/10/05 09:27:26;;;;;;;;;10.80;9.80;;;;;16.69;41.89;100319.81;5131115;27;8853;-75
2023/10/05 09:30:09;;;;;;;;;8.80;7.80;;;;;16.86;41.38;100313.94;5131417;27;8867;-72
2023/10/05 09:32:38;;;;;;;;;10.40;9.80;;;;;17.16;41.44;100304.84;5060116;28;8868;-76
2023/10/05 09:35:10;;;;;;;;;9.00;9.00;;;;;16.87;42.00;100305.91;5110676;28;9585;-75
2023/10/05 09:37:42;;;;;;;;;11.20;9.40;;;;;17.18;41.30;100304.81;5031194;28;8835;-76
2023/10/05 09:40:16;;;;;;;;;12.60;8.80;;;;;17.34;40.63;100294.50;5052120;28;8875;-73
2023/10/05 09:42:48;;;;;;;;;11.40;11.40;;;;;16.93;41.72;100310.13;5052679;28;8859;-75
2023/10/05 09:45:19;;;;;;;;;10.00;9.00;;;;;16.79;41.76;100298.19;5046916;28;8921;-74
2023/10/05 09:47:51;;;;;;;;;8.80;8.80;;;;;16.48;42.00;100298.38;5029910;28;8851;-75
2023/10/05 09:50:21;;;;;;;;;7.60;6.60;;;;;16.25;41.63;100301.78;5046903;28;8962;-75
2023/10/05 09:52:52;;;;;;;;;7.80;7.60;;;;;16.24;41.96;100294.72;5046492;28;8852;-74
2023/10/05 09:55:22;;;;;;;;;9.20;8.00;;;;;16.51;41.59;100290.34;5048756;28;8855;-76
2023/10/05 09:57:56;;;;;;;;;8.00;8.00;;;;;16.84;40.88;100282.09;5034048;28;8857;-73
2023/10/05 10:00:47;;;;;;;;;6.40;6.40;;;;;16.38;41.43;100289.84;5067015;28;8854;-77
2023/10/05 10:03:17;;;;;;;;;8.20;8.00;;;;;16.51;41.31;100279.72;5066699;28;8857;-75
2023/10/05 10:05:51;;;;;;;;;8.40;8.40;;;;;16.43;41.13;100279.06;5067048;28;8846;-72
2023/10/05 10:08:25;;;;;;;;;6.00;6.00;;;;;16.53;40.74;100269.03;5068224;27;8841;-76
2023/10/05 10:11:07;;;;;;;;;6.60;6.60;;;;;16.90;40.26;100265.09;5130374;27;9582;-76
2023/10/05 10:13:38;;;;;;;;;6.60;5.40;;;;;17.49;39.24;100264.69;5130317;27;8857;-76
2023/10/05 10:16:21;;;;;;;;;7.80;7.00;;;;;17.58;38.82;100261.69;5130158;27;9598;-75
2023/10/05 10:18:53;;;;;;;;;9.00;6.80;;;;;17.77;38.42;100258.31;5094521;27;8889;-74
2023/10/05 10:21:33;;;;;;;;;6.40;6.20;;;;;18.05;37.80;100257.25;5077797;27;8887;-74
2023/10/05 10:24:03;;;;;;;;;6.00;6.00;;;;;18.06;37.88;100249.22;5129898;27;8846;-73
2023/10/05 10:26:32;;;;;;;;;7.80;7.80;;;;;18.46;36.94;100241.31;5129892;27;8841;-72
2023/10/05 10:29:05;;;;;;;;;6.80;6.80;;;;;18.84;37.18;100237.03;5130507;27;8834;-76
2023/10/05 10:31:43;;;;;;;;;9.60;9.60;;;;;19.20;36.37;100238.97;5130340;27;8853;-75
2023/10/05 10:34:19;;;;;;;;;8.60;7.00;;;;;19.13;35.50;100241.03;5112223;27;8914;-75
2023/10/05 10:36:52;;;;;;;;;5.20;5.20;;;;;18.57;36.58;100235.53;5130286;27;8841;-75
2023/10/05 10:39:27;;;;;;;;;6.00;6.00;;;;;18.75;35.81;100232.09;5130216;27;8854;-75
2023/10/05 10:42:04;;;;;;;;;5.80;5.00;;;;;19.22;35.56;100223.78;5130055;27;8825;-74
2023/10/05 10:44:56;;;;;;;;;14.80;13.00;;;;;19.35;35.47;100215.19;5129680;27;8908;-75
2023/10/05 10:47:27;;;;;;;;;6.20;6.20;;;;;19.69;35.13;100210.03;5129985;27;8842;-76
2023/10/05 10:50:08;;;;;;;;;9.60;8.00;;;;;19.95;34.58;100199.00;5130047;27;8845;-75
2023/10/05 10:52:37;;;;;;;;;17.20;16.80;;;;;20.22;34.23;100192.28;5130643;27;8970;-77
2023/10/05 10:55:11;;;;;;;;;7.60;7.00;;;;;20.54;33.86;100179.13;5130045;27;8865;-74
2023/10/05 10:57:46;;;;;;;;;10.60;10.40;;;;;20.56;33.53;100171.88;5129875;27;8842;-74
2023/10/05 11:03:11;;;;;;;;;4.80;4.80;;;;;21.08;33.22;100170.06;5129433;27;8845;-76
2023/10/05 11:05:41;;;;;;;;;11.00;10.00;;;;;20.04;33.95;100177.19;5081017;27;8922;-73
2023/10/05 11:08:11;;;;;;;;;6.40;6.40;;;;;20.10;33.40;100177.78;5129522;27;8904;-76
2023/10/05 11:10:41;;;;;;;;;10.60;8.40;;;;;19.27;34.81;100178.22;5129554;27;8826;-74
2023/10/05 11:13:17;;;;;;;;;11.00;11.00;;;;;19.68;34.52;100176.28;5128430;27;9569;-74
2023/10/05 11:15:59;;;;;;;;;10.20;10.20;;;;;19.48;34.69;100176.34;5129828;27;9402;-76
2023/10/05 11:18:30;;;;;;;;;8.60;8.60;;;;;19.88;34.00;100172.63;5059985;27;8857;-77
2023/10/05 11:21:19;;;;;;;;;7.80;7.00;;;;;19.59;34.69;100178.53;5129728;27;8943;-75
2023/10/05 11:23:55;;;;;;;;;9.40;9.40;;;;;20.28;34.38;100165.31;5129463;27;8888;-76
2023/10/05 11:26:33;;;;;;;;;10.00;8.00;;;;;20.89;34.42;100160.31;5129273;27;9695;-76
2023/10/05 11:29:17;;;;;;;;;8.60;7.40;;;;;21.48;32.96;100157.97;5128997;27;9587;-75
2023/10/05 11:31:50;;;;;;;;;7.60;7.60;;;;;21.82;32.64;100154.28;5128893;27;8857;-75
2023/10/05 11:34:39;;;;;;;;;8.80;7.20;;;;;22.21;31.80;100150.16;5128627;27;8838;-74
2023/10/05 11:37:30;;;;;;;;;7.80;7.40;;;;;22.50;31.24;100146.72;5110302;27;8852;-75
2023/10/05 11:40:05;;;;;;;;;7.80;6.40;;;;;22.79;30.68;100148.44;5128172;27;8945;-73
2023/10/05 11:42:35;;;;;;;;;8.20;6.40;;;;;23.09;30.35;100147.50;5129102;27;8996;-76
2023/10/05 11:45:13;;;;;;;;;8.20;7.40;;;;;23.41;29.93;100143.69;5129465;27;8841;-75
2023/10/05 11:47:47;;;;;;;;;10.20;8.80;;;;;23.35;29.12;100150.31;5129475;27;8830;-73
2023/10/05 11:50:24;;;;;;;;;8.00;8.00;;;;;22.97;29.73;100146.44;5111129;27;9008;-74
2023/10/05 11:52:53;;;;;;;;;10.20;8.60;;;;;23.35;29.51;100140.44;5129008;27;8841;-76
2023/10/05 11:55:22;;;;;;;;;8.20;7.40;;;;;23.36;29.81;100136.81;5129228;27;8850;-75